Hlavní strana
METAR-TAF:

METAR-TAF

Letiště :

Granada, Španělsko

zeměpisná šířka: 37-11N, zeměpisná délka: 003-47W, výška: 567 m

Aktuální stav počasí

Zpráva byla vytvořena před 26 minutami, v 19:30 UTC
vítr z různých směrů 2 kt
Teplota 18°C
Vlhkost vzduchu 56%
Tlak 1018 hPa
Viditelnost 10 km a více
Skoro jasno ve výšce 5000 ft

METAR: LEGR 131930Z VRB02KT 9999 FEW050 18/09 Q1018

Čas: 21:56 (19:56 UTC)

Předpověď počasí

Zpráva byla vytvořena před 5 hodinami a 56 minutami, v 14:00 UTC
Předpověď platná od 13 v 15 UTC do 14 v 15 UTC
vítr z různých směrů 2 kt
Viditelnost 10 km a více
Skoro jasno ve výšce 5000 ft
Pravděpodobnost 40% :
Dočasný
od 13 v 15 UTC do 13 v 20 UTC
Jihojihozápadní vítr 10 kt
Pravděpodobnost 30% :
Dočasný
od 14 v 11 UTC do 14 v 15 UTC
Jihojihovýchodní vítr 10 kt
Viditelnost: 4000 m
Polojasno ve výšce 4000 ft, Vertikální cumulus.
dešťové přeháňky

TAF: LEGR 131400Z 1315/1415 VRB02KT 9999 FEW050 TX25/1315Z TN09/1406Z PROB40 TEMPO 1315/1320 21010KT PROB30 TEMPO 1411/1415 15010KT 4000 SHRA SCT040TCU

Stav a předpovědi počasí z více než 4 000 letišť (zprávy METAR a TAF).

Červené a žluté tečky na mapě představují dostupné meteorologické stanice.

Když kurzor umístíte na tečku, zobrazí se název stanice.

Pak kliknutím zobrazíte stav a předpověď počasí.

Chcete-li změnit mapu, kliknutím na zelené tlačítko se znaménkem +mapu přiblížíte, kliknutím na zelené tlačítko se znaménkem – mapu oddálíte a kliknutím na zelené šipky přejdete na sousední mapy.


METAR-TAF: